sensor_id;sensor_type;location;lat;lon;timestamp;temperature;humidity
22212;DHT22;11275;52.488;13.462;2023-04-03T00:00:41;3.20;99.90
22212;DHT22;11275;52.488;13.462;2023-04-03T00:03:07;3.30;99.90
22212;DHT22;11275;52.488;13.462;2023-04-03T00:05:33;3.20;99.90
22212;DHT22;11275;52.488;13.462;2023-04-03T00:07:59;3.20;99.90
22212;DHT22;11275;52.488;13.462;2023-04-03T00:10:25;3.20;99.90
22212;DHT22;11275;52.488;13.462;2023-04-03T00:12:51;3.10;99.90
22212;DHT22;11275;52.488;13.462;2023-04-03T00:15:17;2.90;99.90
22212;DHT22;11275;52.488;13.462;2023-04-03T00:17:42;3.00;99.90
22212;DHT22;11275;52.488;13.462;2023-04-03T00:20:09;3.00;99.90
22212;DHT22;11275;52.488;13.462;2023-04-03T00:22:34;3.00;99.90
22212;DHT22;11275;52.488;13.462;2023-04-03T00:25:00;3.10;99.90
22212;DHT22;11275;52.488;13.462;2023-04-03T00:27:26;3.10;99.90
22212;DHT22;11275;52.488;13.462;2023-04-03T00:29:51;3.10;99.90
22212;DHT22;11275;52.488;13.462;2023-04-03T00:32:17;3.00;99.90
22212;DHT22;11275;52.488;13.462;2023-04-03T00:34:43;3.00;99.90
22212;DHT22;11275;52.488;13.462;2023-04-03T00:37:09;3.00;99.90
22212;DHT22;11275;52.488;13.462;2023-04-03T00:39:34;2.90;99.90
22212;DHT22;11275;52.488;13.462;2023-04-03T00:42:00;3.00;99.90
22212;DHT22;11275;52.488;13.462;2023-04-03T00:47:02;2.90;99.90
22212;DHT22;11275;52.488;13.462;2023-04-03T00:49:29;2.90;99.90
22212;DHT22;11275;52.488;13.462;2023-04-03T00:51:55;2.90;99.90
22212;DHT22;11275;52.488;13.462;2023-04-03T00:54:26;2.90;99.90
22212;DHT22;11275;52.488;13.462;2023-04-03T00:56:53;2.80;99.90
22212;DHT22;11275;52.488;13.462;2023-04-03T00:59:25;2.70;99.90
22212;DHT22;11275;52.488;13.462;2023-04-03T01:01:57;2.70;99.90
22212;DHT22;11275;52.488;13.462;2023-04-03T01:04:32;2.70;99.90
22212;DHT22;11275;52.488;13.462;2023-04-03T01:07:08;2.70;99.90
22212;DHT22;11275;52.488;13.462;2023-04-03T01:09:35;2.80;99.90
22212;DHT22;11275;52.488;13.462;2023-04-03T01:12:21;2.80;99.90
22212;DHT22;11275;52.488;13.462;2023-04-03T01:14:49;2.80;99.90
22212;DHT22;11275;52.488;13.462;2023-04-03T01:17:34;2.90;99.90
22212;DHT22;11275;52.488;13.462;2023-04-03T01:25:38;2.70;99.90
22212;DHT22;11275;52.488;13.462;2023-04-03T01:28:07;2.70;99.90
22212;DHT22;11275;52.488;13.462;2023-04-03T01:30:41;2.70;99.90
22212;DHT22;11275;52.488;13.462;2023-04-03T01:33:08;2.70;99.90
22212;DHT22;11275;52.488;13.462;2023-04-03T01:35:34;2.60;99.90
22212;DHT22;11275;52.488;13.462;2023-04-03T01:37:59;2.50;99.90
22212;DHT22;11275;52.488;13.462;2023-04-03T01:40:25;2.60;99.90
22212;DHT22;11275;52.488;13.462;2023-04-03T01:42:51;2.60;99.90
22212;DHT22;11275;52.488;13.462;2023-04-03T01:45:17;2.50;99.90
22212;DHT22;11275;52.488;13.462;2023-04-03T01:47:43;2.60;99.90
22212;DHT22;11275;52.488;13.462;2023-04-03T01:50:08;2.60;99.90
22212;DHT22;11275;52.488;13.462;2023-04-03T01:52:34;2.60;99.90
22212;DHT22;11275;52.488;13.462;2023-04-03T01:55:00;2.50;99.90
22212;DHT22;11275;52.488;13.462;2023-04-03T01:57:25;2.50;99.90
22212;DHT22;11275;52.488;13.462;2023-04-03T01:59:51;2.60;99.90
22212;DHT22;11275;52.488;13.462;2023-04-03T02:02:17;2.50;99.90
22212;DHT22;11275;52.488;13.462;2023-04-03T02:04:42;2.40;99.90
22212;DHT22;11275;52.488;13.462;2023-04-03T02:07:08;2.40;99.90
22212;DHT22;11275;52.488;13.462;2023-04-03T02:09:34;2.50;99.90
22212;DHT22;11275;52.488;13.462;2023-04-03T02:12:00;2.40;99.90
22212;DHT22;11275;52.488;13.462;2023-04-03T02:14:25;2.40;99.90
22212;DHT22;11275;52.488;13.462;2023-04-03T02:16:52;2.30;99.90
22212;DHT22;11275;52.488;13.462;2023-04-03T02:19:18;2.20;99.90
22212;DHT22;11275;52.488;13.462;2023-04-03T02:21:44;2.30;99.90
22212;DHT22;11275;52.488;13.462;2023-04-03T02:24:10;2.20;99.90
22212;DHT22;11275;52.488;13.462;2023-04-03T02:26:35;2.20;99.90
22212;DHT22;11275;52.488;13.462;2023-04-03T02:29:01;2.20;99.90
22212;DHT22;11275;52.488;13.462;2023-04-03T02:31:27;2.10;99.90
22212;DHT22;11275;52.488;13.462;2023-04-03T02:33:52;2.10;99.90
22212;DHT22;11275;52.488;13.462;2023-04-03T02:36:18;2.10;99.90
22212;DHT22;11275;52.488;13.462;2023-04-03T02:38:43;2.10;99.90
22212;DHT22;11275;52.488;13.462;2023-04-03T02:41:10;2.10;99.90
22212;DHT22;11275;52.488;13.462;2023-04-03T02:43:37;2.10;99.90
22212;DHT22;11275;52.488;13.462;2023-04-03T02:46:04;2.00;99.90
22212;DHT22;11275;52.488;13.462;2023-04-03T02:48:30;2.00;99.90
22212;DHT22;11275;52.488;13.462;2023-04-03T02:50:56;2.00;99.90
22212;DHT22;11275;52.488;13.462;2023-04-03T02:53:22;2.00;99.90
22212;DHT22;11275;52.488;13.462;2023-04-03T02:55:48;1.90;99.90
22212;DHT22;11275;52.488;13.462;2023-04-03T02:58:14;1.90;99.90
22212;DHT22;11275;52.488;13.462;2023-04-03T03:00:40;1.90;99.90
22212;DHT22;11275;52.488;13.462;2023-04-03T03:03:06;1.90;99.90
22212;DHT22;11275;52.488;13.462;2023-04-03T03:05:32;2.00;99.90
22212;DHT22;11275;52.488;13.462;2023-04-03T03:07:58;2.00;99.90
22212;DHT22;11275;52.488;13.462;2023-04-03T03:10:23;1.90;99.90
22212;DHT22;11275;52.488;13.462;2023-04-03T03:12:49;1.90;99.90
22212;DHT22;11275;52.488;13.462;2023-04-03T03:15:15;1.90;99.90
22212;DHT22;11275;52.488;13.462;2023-04-03T03:17:41;1.80;99.90
22212;DHT22;11275;52.488;13.462;2023-04-03T03:20:07;1.80;99.90
22212;DHT22;11275;52.488;13.462;2023-04-03T03:22:35;1.80;99.90
22212;DHT22;11275;52.488;13.462;2023-04-03T03:25:02;1.70;99.90
22212;DHT22;11275;52.488;13.462;2023-04-03T03:27:28;1.80;99.90
22212;DHT22;11275;52.488;13.462;2023-04-03T03:29:53;1.80;99.90
22212;DHT22;11275;52.488;13.462;2023-04-03T03:32:19;1.80;99.90
22212;DHT22;11275;52.488;13.462;2023-04-03T03:34:45;1.80;99.90
22212;DHT22;11275;52.488;13.462;2023-04-03T03:37:10;1.80;99.90
22212;DHT22;11275;52.488;13.462;2023-04-03T03:39:36;1.70;99.90
22212;DHT22;11275;52.488;13.462;2023-04-03T03:42:01;1.70;99.90
22212;DHT22;11275;52.488;13.462;2023-04-03T03:44:27;1.60;99.90
22212;DHT22;11275;52.488;13.462;2023-04-03T03:46:54;1.60;99.90
22212;DHT22;11275;52.488;13.462;2023-04-03T03:49:20;1.60;99.90
22212;DHT22;11275;52.488;13.462;2023-04-03T03:51:46;1.60;99.90
22212;DHT22;11275;52.488;13.462;2023-04-03T03:54:12;1.60;99.90
22212;DHT22;11275;52.488;13.462;2023-04-03T03:56:38;1.50;99.90
22212;DHT22;11275;52.488;13.462;2023-04-03T03:59:04;1.60;99.90
22212;DHT22;11275;52.488;13.462;2023-04-03T04:01:29;1.50;99.90
22212;DHT22;11275;52.488;13.462;2023-04-03T04:03:55;1.40;99.90
22212;DHT22;11275;52.488;13.462;2023-04-03T04:06:21;1.30;99.90
22212;DHT22;11275;52.488;13.462;2023-04-03T04:08:47;1.30;99.90
22212;DHT22;11275;52.488;13.462;2023-04-03T04:11:13;1.40;99.90
22212;DHT22;11275;52.488;13.462;2023-04-03T04:13:38;1.30;99.90
22212;DHT22;11275;52.488;13.462;2023-04-03T04:16:04;1.30;99.90
22212;DHT22;11275;52.488;13.462;2023-04-03T04:18:30;1.30;99.90
22212;DHT22;11275;52.488;13.462;2023-04-03T04:20:56;1.30;99.90
22212;DHT22;11275;52.488;13.462;2023-04-03T04:23:21;1.30;99.90
22212;DHT22;11275;52.488;13.462;2023-04-03T04:25:48;1.20;99.90
22212;DHT22;11275;52.488;13.462;2023-04-03T04:28:14;1.20;99.90
22212;DHT22;11275;52.488;13.462;2023-04-03T04:30:40;1.20;99.90
22212;DHT22;11275;52.488;13.462;2023-04-03T04:33:06;1.20;99.90
22212;DHT22;11275;52.488;13.462;2023-04-03T04:35:32;1.20;99.90
22212;DHT22;11275;52.488;13.462;2023-04-03T04:37:58;1.10;99.90
22212;DHT22;11275;52.488;13.462;2023-04-03T04:40:24;1.10;99.90
22212;DHT22;11275;52.488;13.462;2023-04-03T04:42:49;1.20;99.90
22212;DHT22;11275;52.488;13.462;2023-04-03T04:45:15;1.20;99.90
22212;DHT22;11275;52.488;13.462;2023-04-03T04:47:41;1.10;99.90
22212;DHT22;11275;52.488;13.462;2023-04-03T04:50:07;1.20;99.90
22212;DHT22;11275;52.488;13.462;2023-04-03T04:52:33;1.20;99.90
22212;DHT22;11275;52.488;13.462;2023-04-03T04:54:58;1.20;99.90
22212;DHT22;11275;52.488;13.462;2023-04-03T04:57:25;1.20;99.90
22212;DHT22;11275;52.488;13.462;2023-04-03T04:59:50;1.10;99.90
22212;DHT22;11275;52.488;13.462;2023-04-03T05:02:16;1.20;99.90
22212;DHT22;11275;52.488;13.462;2023-04-03T05:04:41;1.20;99.90
22212;DHT22;11275;52.488;13.462;2023-04-03T05:07:07;1.30;99.90
22212;DHT22;11275;52.488;13.462;2023-04-03T05:09:33;1.30;99.90
22212;DHT22;11275;52.488;13.462;2023-04-03T05:11:58;1.30;99.90
22212;DHT22;11275;52.488;13.462;2023-04-03T05:14:24;1.30;99.90
22212;DHT22;11275;52.488;13.462;2023-04-03T05:16:50;1.30;99.90
22212;DHT22;11275;52.488;13.462;2023-04-03T05:19:20;1.30;99.90
22212;DHT22;11275;52.488;13.462;2023-04-03T05:21:45;1.30;99.90
22212;DHT22;11275;52.488;13.462;2023-04-03T05:24:11;1.40;99.90
22212;DHT22;11275;52.488;13.462;2023-04-03T05:26:37;1.50;99.90
22212;DHT22;11275;52.488;13.462;2023-04-03T05:29:02;1.50;99.90
22212;DHT22;11275;52.488;13.462;2023-04-03T05:31:28;1.60;99.90
22212;DHT22;11275;52.488;13.462;2023-04-03T05:33:55;1.60;99.90
22212;DHT22;11275;52.488;13.462;2023-04-03T05:36:21;1.60;99.90
22212;DHT22;11275;52.488;13.462;2023-04-03T05:38:48;1.50;99.90
22212;DHT22;11275;52.488;13.462;2023-04-03T05:41:14;1.50;99.90
22212;DHT22;11275;52.488;13.462;2023-04-03T05:43:40;1.50;99.90
22212;DHT22;11275;52.488;13.462;2023-04-03T05:46:17;1.50;99.90
22212;DHT22;11275;52.488;13.462;2023-04-03T05:48:43;1.50;99.90
22212;DHT22;11275;52.488;13.462;2023-04-03T05:51:18;1.50;99.90
22212;DHT22;11275;52.488;13.462;2023-04-03T05:53:44;1.60;99.90
22212;DHT22;11275;52.488;13.462;2023-04-03T05:56:11;1.60;99.90
22212;DHT22;11275;52.488;13.462;2023-04-03T05:58:36;1.70;99.90
22212;DHT22;11275;52.488;13.462;2023-04-03T06:01:02;1.60;99.90
22212;DHT22;11275;52.488;13.462;2023-04-03T06:03:28;1.60;99.90
22212;DHT22;11275;52.488;13.462;2023-04-03T06:05:54;1.80;99.90
22212;DHT22;11275;52.488;13.462;2023-04-03T06:08:19;1.80;99.90
22212;DHT22;11275;52.488;13.462;2023-04-03T06:10:45;1.80;99.90
22212;DHT22;11275;52.488;13.462;2023-04-03T06:13:11;1.80;99.90
22212;DHT22;11275;52.488;13.462;2023-04-03T06:15:37;1.90;99.90
22212;DHT22;11275;52.488;13.462;2023-04-03T06:18:05;1.90;99.90
22212;DHT22;11275;52.488;13.462;2023-04-03T06:20:30;1.90;99.90
22212;DHT22;11275;52.488;13.462;2023-04-03T06:22:56;2.00;99.90
22212;DHT22;11275;52.488;13.462;2023-04-03T06:25:22;2.10;99.90
22212;DHT22;11275;52.488;13.462;2023-04-03T06:27:48;2.10;99.90
22212;DHT22;11275;52.488;13.462;2023-04-03T06:30:14;2.20;99.90
22212;DHT22;11275;52.488;13.462;2023-04-03T06:32:40;2.20;99.90
22212;DHT22;11275;52.488;13.462;2023-04-03T06:35:06;2.30;99.90
22212;DHT22;11275;52.488;13.462;2023-04-03T06:37:32;2.40;99.90
22212;DHT22;11275;52.488;13.462;2023-04-03T06:39:58;2.40;99.90
22212;DHT22;11275;52.488;13.462;2023-04-03T06:42:25;2.50;99.90
22212;DHT22;11275;52.488;13.462;2023-04-03T06:44:51;2.60;99.90
22212;DHT22;11275;52.488;13.462;2023-04-03T06:47:17;2.70;99.90
22212;DHT22;11275;52.488;13.462;2023-04-03T06:49:44;2.80;99.90
22212;DHT22;11275;52.488;13.462;2023-04-03T06:52:10;3.20;99.90
22212;DHT22;11275;52.488;13.462;2023-04-03T06:54:38;3.30;99.90
22212;DHT22;11275;52.488;13.462;2023-04-03T06:57:04;3.10;99.90
22212;DHT22;11275;52.488;13.462;2023-04-03T06:59:29;3.10;99.90
22212;DHT22;11275;52.488;13.462;2023-04-03T07:01:55;3.00;99.90
22212;DHT22;11275;52.488;13.462;2023-04-03T07:04:23;3.00;99.90
22212;DHT22;11275;52.488;13.462;2023-04-03T07:06:49;3.00;99.90
22212;DHT22;11275;52.488;13.462;2023-04-03T07:09:16;3.00;99.90
22212;DHT22;11275;52.488;13.462;2023-04-03T07:11:41;3.00;99.90
22212;DHT22;11275;52.488;13.462;2023-04-03T07:14:07;3.00;99.90
22212;DHT22;11275;52.488;13.462;2023-04-03T07:16:36;3.10;99.90
22212;DHT22;11275;52.488;13.462;2023-04-03T07:19:02;3.20;99.90
22212;DHT22;11275;52.488;13.462;2023-04-03T07:21:28;3.40;99.90
22212;DHT22;11275;52.488;13.462;2023-04-03T07:23:54;3.40;99.90
22212;DHT22;11275;52.488;13.462;2023-04-03T07:26:21;3.50;99.90
22212;DHT22;11275;52.488;13.462;2023-04-03T07:28:48;3.60;99.90
22212;DHT22;11275;52.488;13.462;2023-04-03T07:31:15;3.60;99.90
22212;DHT22;11275;52.488;13.462;2023-04-03T07:33:42;3.60;99.90
22212;DHT22;11275;52.488;13.462;2023-04-03T07:36:10;3.70;99.90
22212;DHT22;11275;52.488;13.462;2023-04-03T07:38:39;3.80;99.90
22212;DHT22;11275;52.488;13.462;2023-04-03T07:41:05;3.80;99.90
22212;DHT22;11275;52.488;13.462;2023-04-03T07:43:31;3.90;99.90
22212;DHT22;11275;52.488;13.462;2023-04-03T07:45:56;4.10;99.90
22212;DHT22;11275;52.488;13.462;2023-04-03T07:48:24;4.20;99.90
22212;DHT22;11275;52.488;13.462;2023-04-03T07:50:50;4.30;99.90
22212;DHT22;11275;52.488;13.462;2023-04-03T07:53:16;4.20;99.90
22212;DHT22;11275;52.488;13.462;2023-04-03T07:55:42;4.40;99.90
22212;DHT22;11275;52.488;13.462;2023-04-03T07:58:10;4.50;99.90
22212;DHT22;11275;52.488;13.462;2023-04-03T08:00:37;4.70;99.90
22212;DHT22;11275;52.488;13.462;2023-04-03T08:03:03;4.80;99.90
22212;DHT22;11275;52.488;13.462;2023-04-03T08:05:28;4.90;99.90
22212;DHT22;11275;52.488;13.462;2023-04-03T08:07:54;5.10;99.90
22212;DHT22;11275;52.488;13.462;2023-04-03T08:10:20;5.40;99.90
22212;DHT22;11275;52.488;13.462;2023-04-03T08:12:47;5.50;99.90
22212;DHT22;11275;52.488;13.462;2023-04-03T08:15:13;5.30;99.90
22212;DHT22;11275;52.488;13.462;2023-04-03T08:17:39;5.10;99.90
22212;DHT22;11275;52.488;13.462;2023-04-03T08:20:06;4.90;99.90
22212;DHT22;11275;52.488;13.462;2023-04-03T08:22:32;5.00;99.90
22212;DHT22;11275;52.488;13.462;2023-04-03T08:24:58;5.20;99.90
22212;DHT22;11275;52.488;13.462;2023-04-03T08:27:24;5.40;99.90
22212;DHT22;11275;52.488;13.462;2023-04-03T08:29:50;5.30;99.90
22212;DHT22;11275;52.488;13.462;2023-04-03T08:32:16;5.30;99.90
22212;DHT22;11275;52.488;13.462;2023-04-03T08:34:43;5.40;99.90
22212;DHT22;11275;52.488;13.462;2023-04-03T08:37:08;5.60;99.90
22212;DHT22;11275;52.488;13.462;2023-04-03T08:39:35;5.40;99.40
22212;DHT22;11275;52.488;13.462;2023-04-03T08:42:05;5.20;98.60
22212;DHT22;11275;52.488;13.462;2023-04-03T08:49:58;5.10;97.10
22212;DHT22;11275;52.488;13.462;2023-04-03T08:55:01;5.30;97.30
22212;DHT22;11275;52.488;13.462;2023-04-03T08:57:38;5.30;96.60
22212;DHT22;11275;52.488;13.462;2023-04-03T09:02:51;5.50;96.90
22212;DHT22;11275;52.488;13.462;2023-04-03T09:05:19;5.60;97.40
22212;DHT22;11275;52.488;13.462;2023-04-03T09:08:48;5.60;96.70
22212;DHT22;11275;52.488;13.462;2023-04-03T09:10:42;5.60;97.20
22212;DHT22;11275;52.488;13.462;2023-04-03T09:15:36;5.20;97.00
22212;DHT22;11275;52.488;13.462;2023-04-03T09:18:05;5.00;97.00
22212;DHT22;11275;52.488;13.462;2023-04-03T09:23:44;5.60;98.10
22212;DHT22;11275;52.488;13.462;2023-04-03T09:26:16;5.90;96.40
22212;DHT22;11275;52.488;13.462;2023-04-03T09:28:43;6.10;95.00
22212;DHT22;11275;52.488;13.462;2023-04-03T09:31:19;6.10;95.10
22212;DHT22;11275;52.488;13.462;2023-04-03T09:33:46;5.90;93.90
22212;DHT22;11275;52.488;13.462;2023-04-03T09:36:13;5.90;94.20
22212;DHT22;11275;52.488;13.462;2023-04-03T09:38:38;5.80;94.00
22212;DHT22;11275;52.488;13.462;2023-04-03T09:41:15;6.00;94.20
22212;DHT22;11275;52.488;13.462;2023-04-03T09:43:52;6.20;93.50
22212;DHT22;11275;52.488;13.462;2023-04-03T09:46:23;6.20;92.90
22212;DHT22;11275;52.488;13.462;2023-04-03T09:48:52;6.20;93.00
22212;DHT22;11275;52.488;13.462;2023-04-03T09:51:25;6.10;91.90
22212;DHT22;11275;52.488;13.462;2023-04-03T09:53:51;6.00;93.40
22212;DHT22;11275;52.488;13.462;2023-04-03T09:58:45;6.20;93.20
22212;DHT22;11275;52.488;13.462;2023-04-03T10:01:34;6.40;94.40
22212;DHT22;11275;52.488;13.462;2023-04-03T10:06:37;6.90;94.30
22212;DHT22;11275;52.488;13.462;2023-04-03T10:14:25;7.10;93.00
22212;DHT22;11275;52.488;13.462;2023-04-03T10:17:16;6.60;91.60
22212;DHT22;11275;52.488;13.462;2023-04-03T10:23:21;6.30;93.70
22212;DHT22;11275;52.488;13.462;2023-04-03T10:28:49;6.60;92.60
22212;DHT22;11275;52.488;13.462;2023-04-03T10:31:38;6.80;92.70
22212;DHT22;11275;52.488;13.462;2023-04-03T10:34:28;7.10;93.30
22212;DHT22;11275;52.488;13.462;2023-04-03T10:37:13;7.20;92.60
22212;DHT22;11275;52.488;13.462;2023-04-03T10:39:50;7.20;92.10
22212;DHT22;11275;52.488;13.462;2023-04-03T10:42:29;7.40;92.50
22212;DHT22;11275;52.488;13.462;2023-04-03T10:50:58;6.80;91.20
22212;DHT22;11275;52.488;13.462;2023-04-03T10:53:43;6.40;91.30
22212;DHT22;11275;52.488;13.462;2023-04-03T10:56:21;6.40;91.70
22212;DHT22;11275;52.488;13.462;2023-04-03T10:59:13;6.70;92.20
22212;DHT22;11275;52.488;13.462;2023-04-03T11:01:42;6.70;91.90
22212;DHT22;11275;52.488;13.462;2023-04-03T11:04:10;6.60;91.20
22212;DHT22;11275;52.488;13.462;2023-04-03T11:06:46;6.70;92.00
22212;DHT22;11275;52.488;13.462;2023-04-03T11:09:28;6.90;91.90
22212;DHT22;11275;52.488;13.462;2023-04-03T11:12:11;7.00;92.10
22212;DHT22;11275;52.488;13.462;2023-04-03T11:14:38;7.10;92.10
22212;DHT22;11275;52.488;13.462;2023-04-03T11:19:52;7.40;92.20
22212;DHT22;11275;52.488;13.462;2023-04-03T11:22:28;7.40;91.50
22212;DHT22;11275;52.488;13.462;2023-04-03T11:27:24;7.30;91.50
22212;DHT22;11275;52.488;13.462;2023-04-03T11:29:52;7.30;91.90
22212;DHT22;11275;52.488;13.462;2023-04-03T11:35:02;7.30;91.60
22212;DHT22;11275;52.488;13.462;2023-04-03T11:37:41;7.30;91.60
22212;DHT22;11275;52.488;13.462;2023-04-03T11:42:46;7.60;92.20
22212;DHT22;11275;52.488;13.462;2023-04-03T11:50:43;7.70;92.50
22212;DHT22;11275;52.488;13.462;2023-04-03T11:55:52;7.90;92.60
22212;DHT22;11275;52.488;13.462;2023-04-03T11:58:34;7.90;92.30
22212;DHT22;11275;52.488;13.462;2023-04-03T12:01:11;7.80;92.70
22212;DHT22;11275;52.488;13.462;2023-04-03T12:04:05;7.80;92.30
22212;DHT22;11275;52.488;13.462;2023-04-03T12:09:02;7.20;92.10
22212;DHT22;11275;52.488;13.462;2023-04-03T12:11:32;7.20;92.20
22212;DHT22;11275;52.488;13.462;2023-04-03T12:21:21;6.50;91.40
22212;DHT22;11275;52.488;13.462;2023-04-03T12:32:35;7.20;91.70
22212;DHT22;11275;52.488;13.462;2023-04-03T12:45:25;7.60;90.10
22212;DHT22;11275;52.488;13.462;2023-04-03T12:47:53;7.30;87.20
22212;DHT22;11275;52.488;13.462;2023-04-03T12:50:29;6.90;89.80
22212;DHT22;11275;52.488;13.462;2023-04-03T12:55:30;6.70;90.30
22212;DHT22;11275;52.488;13.462;2023-04-03T12:57:55;6.80;90.40
22212;DHT22;11275;52.488;13.462;2023-04-03T13:00:29;6.80;90.90
22212;DHT22;11275;52.488;13.462;2023-04-03T13:02:55;7.10;91.00
22212;DHT22;11275;52.488;13.462;2023-04-03T13:05:22;7.50;89.10
22212;DHT22;11275;52.488;13.462;2023-04-03T13:08:02;7.60;87.70
22212;DHT22;11275;52.488;13.462;2023-04-03T13:10:28;7.50;88.10
22212;DHT22;11275;52.488;13.462;2023-04-03T13:12:57;7.70;89.60
22212;DHT22;11275;52.488;13.462;2023-04-03T13:15:24;7.90;89.90
22212;DHT22;11275;52.488;13.462;2023-04-03T13:17:51;8.10;90.30
22212;DHT22;11275;52.488;13.462;2023-04-03T13:22:53;7.90;89.80
22212;DHT22;11275;52.488;13.462;2023-04-03T13:25:21;7.80;90.30
22212;DHT22;11275;52.488;13.462;2023-04-03T13:27:48;7.90;90.20
22212;DHT22;11275;52.488;13.462;2023-04-03T13:30:35;7.50;89.30
22212;DHT22;11275;52.488;13.462;2023-04-03T13:33:04;7.00;90.60
22212;DHT22;11275;52.488;13.462;2023-04-03T13:35:39;6.80;91.60
22212;DHT22;11275;52.488;13.462;2023-04-03T13:38:28;6.70;91.60
22212;DHT22;11275;52.488;13.462;2023-04-03T13:40:59;6.70;91.80
22212;DHT22;11275;52.488;13.462;2023-04-03T13:43:35;6.70;91.60
22212;DHT22;11275;52.488;13.462;2023-04-03T13:48:38;6.80;91.20
22212;DHT22;11275;52.488;13.462;2023-04-03T13:53:33;6.40;92.00
22212;DHT22;11275;52.488;13.462;2023-04-03T13:56:13;6.70;92.40
22212;DHT22;11275;52.488;13.462;2023-04-03T13:58:58;6.80;92.00
22212;DHT22;11275;52.488;13.462;2023-04-03T14:01:25;6.80;92.00
22212;DHT22;11275;52.488;13.462;2023-04-03T14:04:00;6.60;91.70
22212;DHT22;11275;52.488;13.462;2023-04-03T14:06:26;6.40;92.50
22212;DHT22;11275;52.488;13.462;2023-04-03T14:08:52;6.50;92.40
22212;DHT22;11275;52.488;13.462;2023-04-03T14:11:28;6.40;92.30
22212;DHT22;11275;52.488;13.462;2023-04-03T14:13:56;6.60;92.60
22212;DHT22;11275;52.488;13.462;2023-04-03T14:16:25;6.90;92.50
22212;DHT22;11275;52.488;13.462;2023-04-03T14:18:52;7.10;92.50
22212;DHT22;11275;52.488;13.462;2023-04-03T14:21:19;7.00;91.80
22212;DHT22;11275;52.488;13.462;2023-04-03T14:23:46;6.80;91.10
22212;DHT22;11275;52.488;13.462;2023-04-03T14:26:18;6.70;92.20
22212;DHT22;11275;52.488;13.462;2023-04-03T14:28:46;6.80;92.60
22212;DHT22;11275;52.488;13.462;2023-04-03T14:31:14;6.90;92.70
22212;DHT22;11275;52.488;13.462;2023-04-03T14:33:41;7.00;92.10
22212;DHT22;11275;52.488;13.462;2023-04-03T14:36:13;7.50;92.10
22212;DHT22;11275;52.488;13.462;2023-04-03T14:38:40;7.60;91.30
22212;DHT22;11275;52.488;13.462;2023-04-03T14:41:06;7.40;90.60
22212;DHT22;11275;52.488;13.462;2023-04-03T14:43:32;7.40;91.50
22212;DHT22;11275;52.488;13.462;2023-04-03T14:45:57;7.40;91.40
22212;DHT22;11275;52.488;13.462;2023-04-03T14:48:26;7.30;90.90
22212;DHT22;11275;52.488;13.462;2023-04-03T14:50:53;6.80;91.20
22212;DHT22;11275;52.488;13.462;2023-04-03T14:53:19;6.70;91.90
22212;DHT22;11275;52.488;13.462;2023-04-03T14:55:49;6.60;92.20
22212;DHT22;11275;52.488;13.462;2023-04-03T14:58:17;6.60;92.70
22212;DHT22;11275;52.488;13.462;2023-04-03T15:00:44;6.60;92.90
22212;DHT22;11275;52.488;13.462;2023-04-03T15:03:16;6.70;93.40
22212;DHT22;11275;52.488;13.462;2023-04-03T15:05:44;6.70;93.60
22212;DHT22;11275;52.488;13.462;2023-04-03T15:08:26;6.80;93.80
22212;DHT22;11275;52.488;13.462;2023-04-03T15:10:55;6.60;93.40
22212;DHT22;11275;52.488;13.462;2023-04-03T15:13:22;6.40;94.10
22212;DHT22;11275;52.488;13.462;2023-04-03T15:15:49;6.40;94.60
22212;DHT22;11275;52.488;13.462;2023-04-03T15:18:21;6.50;95.30
22212;DHT22;11275;52.488;13.462;2023-04-03T15:20:48;6.40;94.70
22212;DHT22;11275;52.488;13.462;2023-04-03T15:23:15;6.30;95.10
22212;DHT22;11275;52.488;13.462;2023-04-03T15:25:46;6.00;95.10
22212;DHT22;11275;52.488;13.462;2023-04-03T15:28:22;5.80;95.40
22212;DHT22;11275;52.488;13.462;2023-04-03T15:30:48;5.70;95.80
22212;DHT22;11275;52.488;13.462;2023-04-03T15:33:14;5.70;96.10
22212;DHT22;11275;52.488;13.462;2023-04-03T15:35:41;5.60;96.40
22212;DHT22;11275;52.488;13.462;2023-04-03T15:38:07;5.60;96.30
22212;DHT22;11275;52.488;13.462;2023-04-03T15:40:32;5.70;96.50
22212;DHT22;11275;52.488;13.462;2023-04-03T15:42:58;5.70;96.60
22212;DHT22;11275;52.488;13.462;2023-04-03T15:45:24;5.60;96.90
22212;DHT22;11275;52.488;13.462;2023-04-03T15:47:50;5.70;97.10
22212;DHT22;11275;52.488;13.462;2023-04-03T15:50:15;5.60;96.80
22212;DHT22;11275;52.488;13.462;2023-04-03T15:52:41;5.70;97.00
22212;DHT22;11275;52.488;13.462;2023-04-03T15:55:07;5.80;96.60
22212;DHT22;11275;52.488;13.462;2023-04-03T15:57:33;5.60;96.30
22212;DHT22;11275;52.488;13.462;2023-04-03T15:59:58;5.60;96.70
22212;DHT22;11275;52.488;13.462;2023-04-03T16:02:24;5.50;96.80
22212;DHT22;11275;52.488;13.462;2023-04-03T16:04:54;5.40;96.90
22212;DHT22;11275;52.488;13.462;2023-04-03T16:07:20;5.40;97.30
22212;DHT22;11275;52.488;13.462;2023-04-03T16:09:45;5.40;97.30
22212;DHT22;11275;52.488;13.462;2023-04-03T16:12:11;5.40;97.60
22212;DHT22;11275;52.488;13.462;2023-04-03T16:14:37;5.40;96.90
22212;DHT22;11275;52.488;13.462;2023-04-03T16:17:02;5.70;97.10
22212;DHT22;11275;52.488;13.462;2023-04-03T16:19:29;5.80;97.10
22212;DHT22;11275;52.488;13.462;2023-04-03T16:21:55;5.80;96.60
22212;DHT22;11275;52.488;13.462;2023-04-03T16:24:21;5.80;95.80
22212;DHT22;11275;52.488;13.462;2023-04-03T16:26:46;5.80;95.90
22212;DHT22;11275;52.488;13.462;2023-04-03T16:29:12;6.00;96.20
22212;DHT22;11275;52.488;13.462;2023-04-03T16:31:38;6.00;95.90
22212;DHT22;11275;52.488;13.462;2023-04-03T16:34:03;5.90;95.70
22212;DHT22;11275;52.488;13.462;2023-04-03T16:36:29;5.90;96.00
22212;DHT22;11275;52.488;13.462;2023-04-03T16:38:55;5.90;95.80
22212;DHT22;11275;52.488;13.462;2023-04-03T16:41:20;5.80;95.70
22212;DHT22;11275;52.488;13.462;2023-04-03T16:43:46;5.90;96.00
22212;DHT22;11275;52.488;13.462;2023-04-03T16:46:11;5.80;96.00
22212;DHT22;11275;52.488;13.462;2023-04-03T16:48:37;5.80;96.70
22212;DHT22;11275;52.488;13.462;2023-04-03T16:51:03;5.70;97.50
22212;DHT22;11275;52.488;13.462;2023-04-03T16:53:28;5.70;97.50
22212;DHT22;11275;52.488;13.462;2023-04-03T16:55:54;5.80;97.70
22212;DHT22;11275;52.488;13.462;2023-04-03T16:58:22;5.80;97.70
22212;DHT22;11275;52.488;13.462;2023-04-03T17:00:47;5.90;97.40
22212;DHT22;11275;52.488;13.462;2023-04-03T17:03:13;5.80;97.40
22212;DHT22;11275;52.488;13.462;2023-04-03T17:05:38;5.90;97.50
22212;DHT22;11275;52.488;13.462;2023-04-03T17:08:04;6.00;97.60
22212;DHT22;11275;52.488;13.462;2023-04-03T17:10:30;6.10;97.20
22212;DHT22;11275;52.488;13.462;2023-04-03T17:12:56;6.00;97.40
22212;DHT22;11275;52.488;13.462;2023-04-03T17:15:22;5.80;97.20
22212;DHT22;11275;52.488;13.462;2023-04-03T17:17:49;5.80;97.70
22212;DHT22;11275;52.488;13.462;2023-04-03T17:20:16;5.70;97.40